sensor_id;sensor_type;location;lat;lon;timestamp;temperature;humidity
22666;DHT22;11499;49.486;11.104;2023-05-17T00:01:40;6.00;99.90
22666;DHT22;11499;49.486;11.104;2023-05-17T00:04:06;6.00;99.90
22666;DHT22;11499;49.486;11.104;2023-05-17T00:06:31;6.00;99.90
22666;DHT22;11499;49.486;11.104;2023-05-17T00:08:59;6.10;99.90
22666;DHT22;11499;49.486;11.104;2023-05-17T00:11:24;6.00;99.90
22666;DHT22;11499;49.486;11.104;2023-05-17T00:13:50;6.10;99.90
22666;DHT22;11499;49.486;11.104;2023-05-17T00:16:16;6.10;99.90
22666;DHT22;11499;49.486;11.104;2023-05-17T00:21:24;6.10;99.90
22666;DHT22;11499;49.486;11.104;2023-05-17T00:23:50;6.10;99.90
22666;DHT22;11499;49.486;11.104;2023-05-17T00:26:15;6.10;99.90
22666;DHT22;11499;49.486;11.104;2023-05-17T00:28:41;6.10;99.90
22666;DHT22;11499;49.486;11.104;2023-05-17T00:31:06;6.10;99.90
22666;DHT22;11499;49.486;11.104;2023-05-17T00:33:32;6.10;99.90
22666;DHT22;11499;49.486;11.104;2023-05-17T00:35:57;6.00;99.90
22666;DHT22;11499;49.486;11.104;2023-05-17T00:38:23;6.00;99.90
22666;DHT22;11499;49.486;11.104;2023-05-17T00:40:49;5.90;99.90
22666;DHT22;11499;49.486;11.104;2023-05-17T00:43:14;5.90;99.90
22666;DHT22;11499;49.486;11.104;2023-05-17T00:48:21;5.90;99.90
22666;DHT22;11499;49.486;11.104;2023-05-17T00:50:50;5.70;99.90
22666;DHT22;11499;49.486;11.104;2023-05-17T00:53:16;5.70;99.90
22666;DHT22;11499;49.486;11.104;2023-05-17T00:55:42;5.70;99.90
22666;DHT22;11499;49.486;11.104;2023-05-17T00:58:12;5.60;99.90
22666;DHT22;11499;49.486;11.104;2023-05-17T01:00:38;5.60;99.90
22666;DHT22;11499;49.486;11.104;2023-05-17T01:03:04;5.60;99.90
22666;DHT22;11499;49.486;11.104;2023-05-17T01:05:29;5.60;99.90
22666;DHT22;11499;49.486;11.104;2023-05-17T01:07:55;5.60;99.90
22666;DHT22;11499;49.486;11.104;2023-05-17T01:10:30;5.60;99.90
22666;DHT22;11499;49.486;11.104;2023-05-17T01:15:37;5.60;99.90
22666;DHT22;11499;49.486;11.104;2023-05-17T01:18:20;5.50;99.90
22666;DHT22;11499;49.486;11.104;2023-05-17T01:20:49;5.50;99.90
22666;DHT22;11499;49.486;11.104;2023-05-17T01:28:22;5.40;99.90
22666;DHT22;11499;49.486;11.104;2023-05-17T01:30:50;5.40;99.90
22666;DHT22;11499;49.486;11.104;2023-05-17T01:33:17;5.30;99.90
22666;DHT22;11499;49.486;11.104;2023-05-17T01:35:44;5.30;99.90
22666;DHT22;11499;49.486;11.104;2023-05-17T01:38:09;5.20;99.90
22666;DHT22;11499;49.486;11.104;2023-05-17T01:40:39;5.20;99.90
22666;DHT22;11499;49.486;11.104;2023-05-17T01:43:16;5.20;99.90
22666;DHT22;11499;49.486;11.104;2023-05-17T01:48:54;5.20;99.90
22666;DHT22;11499;49.486;11.104;2023-05-17T01:51:00;5.20;99.90
22666;DHT22;11499;49.486;11.104;2023-05-17T01:53:32;5.10;99.90
22666;DHT22;11499;49.486;11.104;2023-05-17T01:56:15;5.10;99.90
22666;DHT22;11499;49.486;11.104;2023-05-17T01:58:47;5.00;99.90
22666;DHT22;11499;49.486;11.104;2023-05-17T02:01:17;4.90;99.90
22666;DHT22;11499;49.486;11.104;2023-05-17T02:03:46;4.90;99.90
22666;DHT22;11499;49.486;11.104;2023-05-17T02:06:12;4.80;99.90
22666;DHT22;11499;49.486;11.104;2023-05-17T02:08:37;4.70;99.90
22666;DHT22;11499;49.486;11.104;2023-05-17T02:11:03;4.70;99.90
22666;DHT22;11499;49.486;11.104;2023-05-17T02:15:47;4.70;99.90
22666;DHT22;11499;49.486;11.104;2023-05-17T02:18:13;4.70;99.90
22666;DHT22;11499;49.486;11.104;2023-05-17T02:20:38;4.70;99.90
22666;DHT22;11499;49.486;11.104;2023-05-17T02:23:04;4.60;99.90
22666;DHT22;11499;49.486;11.104;2023-05-17T02:25:30;4.60;99.90
22666;DHT22;11499;49.486;11.104;2023-05-17T02:27:55;4.60;99.90
22666;DHT22;11499;49.486;11.104;2023-05-17T02:30:21;4.60;99.90
22666;DHT22;11499;49.486;11.104;2023-05-17T02:32:47;4.60;99.90
22666;DHT22;11499;49.486;11.104;2023-05-17T02:35:13;4.50;99.90
22666;DHT22;11499;49.486;11.104;2023-05-17T02:37:38;4.50;99.90
22666;DHT22;11499;49.486;11.104;2023-05-17T02:43:10;4.50;99.90
22666;DHT22;11499;49.486;11.104;2023-05-17T02:45:36;4.50;99.90
22666;DHT22;11499;49.486;11.104;2023-05-17T02:48:01;4.50;99.90
22666;DHT22;11499;49.486;11.104;2023-05-17T02:50:27;4.50;99.90
22666;DHT22;11499;49.486;11.104;2023-05-17T02:52:52;4.50;99.90
22666;DHT22;11499;49.486;11.104;2023-05-17T02:55:18;4.40;99.90
22666;DHT22;11499;49.486;11.104;2023-05-17T02:57:43;4.40;99.90
22666;DHT22;11499;49.486;11.104;2023-05-17T03:00:09;4.40;99.90
22666;DHT22;11499;49.486;11.104;2023-05-17T03:02:34;4.40;99.90
22666;DHT22;11499;49.486;11.104;2023-05-17T03:05:00;4.30;99.90
22666;DHT22;11499;49.486;11.104;2023-05-17T03:10:08;4.40;99.90
22666;DHT22;11499;49.486;11.104;2023-05-17T03:12:34;4.30;99.90
22666;DHT22;11499;49.486;11.104;2023-05-17T03:14:59;4.30;99.90
22666;DHT22;11499;49.486;11.104;2023-05-17T03:17:25;4.20;99.90
22666;DHT22;11499;49.486;11.104;2023-05-17T03:19:50;4.20;99.90
22666;DHT22;11499;49.486;11.104;2023-05-17T03:22:16;4.30;99.90
22666;DHT22;11499;49.486;11.104;2023-05-17T03:24:41;4.20;99.90
22666;DHT22;11499;49.486;11.104;2023-05-17T03:27:07;4.20;99.90
22666;DHT22;11499;49.486;11.104;2023-05-17T03:29:32;4.20;99.90
22666;DHT22;11499;49.486;11.104;2023-05-17T03:31:58;4.10;99.90
22666;DHT22;11499;49.486;11.104;2023-05-17T03:37:38;4.10;99.90
22666;DHT22;11499;49.486;11.104;2023-05-17T03:40:04;4.10;99.90
22666;DHT22;11499;49.486;11.104;2023-05-17T03:42:30;4.10;99.90
22666;DHT22;11499;49.486;11.104;2023-05-17T03:44:56;4.20;99.90
22666;DHT22;11499;49.486;11.104;2023-05-17T03:47:22;4.20;99.90
22666;DHT22;11499;49.486;11.104;2023-05-17T03:49:48;4.30;99.90
22666;DHT22;11499;49.486;11.104;2023-05-17T03:52:14;4.30;99.90
22666;DHT22;11499;49.486;11.104;2023-05-17T03:54:39;4.40;99.90
22666;DHT22;11499;49.486;11.104;2023-05-17T03:57:05;4.40;99.90
22666;DHT22;11499;49.486;11.104;2023-05-17T03:59:30;4.50;99.90
22666;DHT22;11499;49.486;11.104;2023-05-17T04:04:36;4.60;99.90
22666;DHT22;11499;49.486;11.104;2023-05-17T04:07:02;5.20;99.90
22666;DHT22;11499;49.486;11.104;2023-05-17T04:09:29;5.60;99.90
22666;DHT22;11499;49.486;11.104;2023-05-17T04:11:55;6.00;99.90
22666;DHT22;11499;49.486;11.104;2023-05-17T04:14:20;6.30;99.90
22666;DHT22;11499;49.486;11.104;2023-05-17T04:16:46;6.80;99.90
22666;DHT22;11499;49.486;11.104;2023-05-17T04:19:12;7.40;99.90
22666;DHT22;11499;49.486;11.104;2023-05-17T04:21:37;7.80;99.90
22666;DHT22;11499;49.486;11.104;2023-05-17T04:24:03;8.00;99.90
22666;DHT22;11499;49.486;11.104;2023-05-17T04:26:29;8.60;99.90
22666;DHT22;11499;49.486;11.104;2023-05-17T04:28:54;9.10;99.90
22666;DHT22;11499;49.486;11.104;2023-05-17T04:31:20;9.20;99.90
22666;DHT22;11499;49.486;11.104;2023-05-17T04:36:03;9.80;99.30
22666;DHT22;11499;49.486;11.104;2023-05-17T04:38:29;10.40;97.50
22666;DHT22;11499;49.486;11.104;2023-05-17T04:41:05;10.90;95.90
22666;DHT22;11499;49.486;11.104;2023-05-17T04:43:32;11.40;95.00
22666;DHT22;11499;49.486;11.104;2023-05-17T04:45:58;11.20;94.20
22666;DHT22;11499;49.486;11.104;2023-05-17T04:48:24;11.70;93.60
22666;DHT22;11499;49.486;11.104;2023-05-17T04:50:50;10.80;93.60
22666;DHT22;11499;49.486;11.104;2023-05-17T04:53:16;10.90;94.30
22666;DHT22;11499;49.486;11.104;2023-05-17T04:55:41;10.70;94.40
22666;DHT22;11499;49.486;11.104;2023-05-17T04:58:07;10.10;94.40
22666;DHT22;11499;49.486;11.104;2023-05-17T05:03:07;10.10;95.00
22666;DHT22;11499;49.486;11.104;2023-05-17T05:05:33;9.90;95.30
22666;DHT22;11499;49.486;11.104;2023-05-17T05:07:59;9.30;96.80
22666;DHT22;11499;49.486;11.104;2023-05-17T05:10:25;9.00;97.30
22666;DHT22;11499;49.486;11.104;2023-05-17T05:12:53;9.00;97.40
22666;DHT22;11499;49.486;11.104;2023-05-17T05:15:18;9.20;97.50
22666;DHT22;11499;49.486;11.104;2023-05-17T05:17:44;9.10;97.50
22666;DHT22;11499;49.486;11.104;2023-05-17T05:20:09;9.10;97.40
22666;DHT22;11499;49.486;11.104;2023-05-17T05:22:35;8.90;97.90
22666;DHT22;11499;49.486;11.104;2023-05-17T05:25:00;8.80;98.10
22666;DHT22;11499;49.486;11.104;2023-05-17T05:30:15;9.00;98.00
22666;DHT22;11499;49.486;11.104;2023-05-17T05:32:47;9.90;97.30
22666;DHT22;11499;49.486;11.104;2023-05-17T05:35:13;10.30;96.10
22666;DHT22;11499;49.486;11.104;2023-05-17T05:37:38;10.50;96.00
22666;DHT22;11499;49.486;11.104;2023-05-17T05:40:04;10.20;95.60
22666;DHT22;11499;49.486;11.104;2023-05-17T05:42:30;9.70;97.00
22666;DHT22;11499;49.486;11.104;2023-05-17T05:44:55;9.60;96.90
22666;DHT22;11499;49.486;11.104;2023-05-17T05:47:21;9.60;96.90
22666;DHT22;11499;49.486;11.104;2023-05-17T05:49:46;9.90;97.00
22666;DHT22;11499;49.486;11.104;2023-05-17T05:52:12;10.10;96.10
22666;DHT22;11499;49.486;11.104;2023-05-17T05:57:15;9.80;97.30
22666;DHT22;11499;49.486;11.104;2023-05-17T05:59:41;9.80;96.80
22666;DHT22;11499;49.486;11.104;2023-05-17T06:02:06;10.30;96.60
22666;DHT22;11499;49.486;11.104;2023-05-17T06:04:32;10.20;95.80
22666;DHT22;11499;49.486;11.104;2023-05-17T06:06:58;10.10;95.70
22666;DHT22;11499;49.486;11.104;2023-05-17T06:09:23;10.20;96.00
22666;DHT22;11499;49.486;11.104;2023-05-17T06:11:51;10.00;96.20
22666;DHT22;11499;49.486;11.104;2023-05-17T06:14:17;10.00;96.30
22666;DHT22;11499;49.486;11.104;2023-05-17T06:16:42;10.50;95.60
22666;DHT22;11499;49.486;11.104;2023-05-17T06:19:08;10.40;95.50
22666;DHT22;11499;49.486;11.104;2023-05-17T06:24:31;10.20;96.00
22666;DHT22;11499;49.486;11.104;2023-05-17T06:26:57;10.80;95.10
22666;DHT22;11499;49.486;11.104;2023-05-17T06:29:22;10.90;95.10
22666;DHT22;11499;49.486;11.104;2023-05-17T06:31:48;10.90;94.90
22666;DHT22;11499;49.486;11.104;2023-05-17T06:34:13;11.00;95.00
22666;DHT22;11499;49.486;11.104;2023-05-17T06:36:39;11.20;94.70
22666;DHT22;11499;49.486;11.104;2023-05-17T06:39:04;11.10;94.80
22666;DHT22;11499;49.486;11.104;2023-05-17T06:41:30;11.30;94.50
22666;DHT22;11499;49.486;11.104;2023-05-17T06:43:55;10.60;94.00
22666;DHT22;11499;49.486;11.104;2023-05-17T06:47:44;10.80;94.10
22666;DHT22;11499;49.486;11.104;2023-05-17T06:50:09;10.10;94.40
22666;DHT22;11499;49.486;11.104;2023-05-17T06:52:35;9.90;96.00
22666;DHT22;11499;49.486;11.104;2023-05-17T06:55:01;10.30;95.50
22666;DHT22;11499;49.486;11.104;2023-05-17T06:57:26;10.20;95.30
22666;DHT22;11499;49.486;11.104;2023-05-17T06:59:52;10.00;95.30
22666;DHT22;11499;49.486;11.104;2023-05-17T07:02:18;10.60;94.90
22666;DHT22;11499;49.486;11.104;2023-05-17T07:04:43;10.40;94.70
22666;DHT22;11499;49.486;11.104;2023-05-17T07:09:49;10.10;95.10
22666;DHT22;11499;49.486;11.104;2023-05-17T07:12:14;11.40;94.00
22666;DHT22;11499;49.486;11.104;2023-05-17T07:14:40;10.80;94.20
22666;DHT22;11499;49.486;11.104;2023-05-17T07:17:05;11.00;94.50
22666;DHT22;11499;49.486;11.104;2023-05-17T07:19:31;11.50;93.60
22666;DHT22;11499;49.486;11.104;2023-05-17T07:21:56;11.10;93.70
22666;DHT22;11499;49.486;11.104;2023-05-17T07:24:22;11.20;93.70
22666;DHT22;11499;49.486;11.104;2023-05-17T07:26:47;11.20;93.90
22666;DHT22;11499;49.486;11.104;2023-05-17T07:29:13;11.40;93.80
22666;DHT22;11499;49.486;11.104;2023-05-17T07:31:38;12.00;92.90
22666;DHT22;11499;49.486;11.104;2023-05-17T07:34:04;12.40;92.30
22666;DHT22;11499;49.486;11.104;2023-05-17T07:36:29;12.00;92.80
22666;DHT22;11499;49.486;11.104;2023-05-17T07:41:35;12.10;92.50
22666;DHT22;11499;49.486;11.104;2023-05-17T07:44:01;12.70;91.70
22666;DHT22;11499;49.486;11.104;2023-05-17T07:46:26;12.80;91.50
22666;DHT22;11499;49.486;11.104;2023-05-17T07:48:52;13.00;91.00
22666;DHT22;11499;49.486;11.104;2023-05-17T07:51:17;13.30;90.90
22666;DHT22;11499;49.486;11.104;2023-05-17T07:53:44;13.10;90.60
22666;DHT22;11499;49.486;11.104;2023-05-17T07:56:09;13.20;90.30
22666;DHT22;11499;49.486;11.104;2023-05-17T07:58:35;13.40;90.50
22666;DHT22;11499;49.486;11.104;2023-05-17T08:01:01;13.00;90.70
22666;DHT22;11499;49.486;11.104;2023-05-17T08:03:26;13.20;90.00
22666;DHT22;11499;49.486;11.104;2023-05-17T08:07:17;13.60;88.50
22666;DHT22;11499;49.486;11.104;2023-05-17T08:09:42;13.50;86.60
22666;DHT22;11499;49.486;11.104;2023-05-17T08:12:09;13.60;85.80
22666;DHT22;11499;49.486;11.104;2023-05-17T08:14:35;13.40;86.60
22666;DHT22;11499;49.486;11.104;2023-05-17T08:17:00;13.70;86.60
22666;DHT22;11499;49.486;11.104;2023-05-17T08:19:26;14.00;84.70
22666;DHT22;11499;49.486;11.104;2023-05-17T08:21:52;13.50;84.90
22666;DHT22;11499;49.486;11.104;2023-05-17T08:24:18;12.70;84.80
22666;DHT22;11499;49.486;11.104;2023-05-17T08:26:43;13.20;85.50
22666;DHT22;11499;49.486;11.104;2023-05-17T08:29:09;12.60;83.40
22666;DHT22;11499;49.486;11.104;2023-05-17T08:34:20;12.10;85.00
22666;DHT22;11499;49.486;11.104;2023-05-17T08:36:46;12.20;84.30
22666;DHT22;11499;49.486;11.104;2023-05-17T08:39:12;12.70;82.70
22666;DHT22;11499;49.486;11.104;2023-05-17T08:41:38;12.60;84.20
22666;DHT22;11499;49.486;11.104;2023-05-17T08:44:04;12.80;84.80
22666;DHT22;11499;49.486;11.104;2023-05-17T08:46:32;12.70;84.60
22666;DHT22;11499;49.486;11.104;2023-05-17T08:48:59;12.60;84.00
22666;DHT22;11499;49.486;11.104;2023-05-17T08:51:26;12.50;85.00
22666;DHT22;11499;49.486;11.104;2023-05-17T08:53:53;11.90;86.70
22666;DHT22;11499;49.486;11.104;2023-05-17T08:56:20;11.60;89.20
22666;DHT22;11499;49.486;11.104;2023-05-17T09:00:42;11.40;89.80
22666;DHT22;11499;49.486;11.104;2023-05-17T09:03:08;11.40;89.50
22666;DHT22;11499;49.486;11.104;2023-05-17T09:05:37;12.00;89.30
22666;DHT22;11499;49.486;11.104;2023-05-17T09:08:03;12.20;88.70
22666;DHT22;11499;49.486;11.104;2023-05-17T09:10:29;12.70;87.60
22666;DHT22;11499;49.486;11.104;2023-05-17T09:12:56;12.20;88.10
22666;DHT22;11499;49.486;11.104;2023-05-17T09:15:22;12.20;87.70
22666;DHT22;11499;49.486;11.104;2023-05-17T09:17:52;12.10;88.60
22666;DHT22;11499;49.486;11.104;2023-05-17T09:20:22;11.70;88.90
22666;DHT22;11499;49.486;11.104;2023-05-17T09:22:49;11.50;88.80
22666;DHT22;11499;49.486;11.104;2023-05-17T09:25:19;11.80;89.30
22666;DHT22;11499;49.486;11.104;2023-05-17T09:27:44;11.90;88.70
22666;DHT22;11499;49.486;11.104;2023-05-17T09:31:47;11.90;89.80
22666;DHT22;11499;49.486;11.104;2023-05-17T09:34:17;12.40;88.70
22666;DHT22;11499;49.486;11.104;2023-05-17T09:36:43;12.70;87.30
22666;DHT22;11499;49.486;11.104;2023-05-17T09:39:09;12.70;87.80
22666;DHT22;11499;49.486;11.104;2023-05-17T09:41:44;12.80;87.10
22666;DHT22;11499;49.486;11.104;2023-05-17T09:44:11;12.90;86.90
22666;DHT22;11499;49.486;11.104;2023-05-17T09:46:41;13.50;84.60
22666;DHT22;11499;49.486;11.104;2023-05-17T09:49:07;13.20;84.40
22666;DHT22;11499;49.486;11.104;2023-05-17T09:51:34;12.90;85.30
22666;DHT22;11499;49.486;11.104;2023-05-17T09:54:00;13.00;86.10
22666;DHT22;11499;49.486;11.104;2023-05-17T09:59:13;12.90;86.70
22666;DHT22;11499;49.486;11.104;2023-05-17T10:01:41;12.20;85.60
22666;DHT22;11499;49.486;11.104;2023-05-17T10:04:10;11.90;85.20
22666;DHT22;11499;49.486;11.104;2023-05-17T10:06:38;12.00;86.40
22666;DHT22;11499;49.486;11.104;2023-05-17T10:09:06;12.20;86.60
22666;DHT22;11499;49.486;11.104;2023-05-17T10:11:36;12.60;86.00
22666;DHT22;11499;49.486;11.104;2023-05-17T10:16:48;12.40;85.40
22666;DHT22;11499;49.486;11.104;2023-05-17T10:19:13;12.50;85.50
22666;DHT22;11499;49.486;11.104;2023-05-17T10:21:40;12.80;85.30
22666;DHT22;11499;49.486;11.104;2023-05-17T10:24:07;13.00;84.40
22666;DHT22;11499;49.486;11.104;2023-05-17T10:29:17;13.50;85.00
22666;DHT22;11499;49.486;11.104;2023-05-17T10:31:45;13.10;84.10
22666;DHT22;11499;49.486;11.104;2023-05-17T10:34:11;13.20;85.10
22666;DHT22;11499;49.486;11.104;2023-05-17T10:36:42;13.20;85.00
22666;DHT22;11499;49.486;11.104;2023-05-17T10:39:09;13.10;84.90
22666;DHT22;11499;49.486;11.104;2023-05-17T10:41:38;13.10;85.10
22666;DHT22;11499;49.486;11.104;2023-05-17T10:44:05;12.70;86.20
22666;DHT22;11499;49.486;11.104;2023-05-17T10:46:33;12.70;86.50
22666;DHT22;11499;49.486;11.104;2023-05-17T10:51:52;12.20;87.30
22666;DHT22;11499;49.486;11.104;2023-05-17T10:54:17;13.10;86.20
22666;DHT22;11499;49.486;11.104;2023-05-17T10:56:50;13.30;85.80
22666;DHT22;11499;49.486;11.104;2023-05-17T10:59:17;13.10;86.20
22666;DHT22;11499;49.486;11.104;2023-05-17T11:10:10;13.00;85.80
22666;DHT22;11499;49.486;11.104;2023-05-17T11:12:44;13.10;86.00
22666;DHT22;11499;49.486;11.104;2023-05-17T11:15:13;13.10;86.20
22666;DHT22;11499;49.486;11.104;2023-05-17T11:19:10;13.30;85.60
22666;DHT22;11499;49.486;11.104;2023-05-17T11:21:46;12.80;86.40
22666;DHT22;11499;49.486;11.104;2023-05-17T11:24:15;13.50;84.50
22666;DHT22;11499;49.486;11.104;2023-05-17T11:26:44;13.60;84.20
22666;DHT22;11499;49.486;11.104;2023-05-17T11:29:10;12.80;85.90
22666;DHT22;11499;49.486;11.104;2023-05-17T11:31:42;12.80;85.20
22666;DHT22;11499;49.486;11.104;2023-05-17T11:34:08;12.60;85.30
22666;DHT22;11499;49.486;11.104;2023-05-17T11:36:49;12.90;86.40
22666;DHT22;11499;49.486;11.104;2023-05-17T11:41:48;12.70;85.80
22666;DHT22;11499;49.486;11.104;2023-05-17T11:44:41;12.00;86.80
22666;DHT22;11499;49.486;11.104;2023-05-17T11:47:07;12.00;87.60
22666;DHT22;11499;49.486;11.104;2023-05-17T11:49:37;11.90;87.70
22666;DHT22;11499;49.486;11.104;2023-05-17T11:52:04;12.30;88.20
22666;DHT22;11499;49.486;11.104;2023-05-17T11:54:30;12.20;88.30
22666;DHT22;11499;49.486;11.104;2023-05-17T11:56:57;12.60;86.60
22666;DHT22;11499;49.486;11.104;2023-05-17T11:59:23;12.40;86.90
22666;DHT22;11499;49.486;11.104;2023-05-17T12:01:50;12.30;87.00
22666;DHT22;11499;49.486;11.104;2023-05-17T12:04:23;12.90;86.70
22666;DHT22;11499;49.486;11.104;2023-05-17T12:09:38;13.70;85.10
22666;DHT22;11499;49.486;11.104;2023-05-17T12:12:04;13.40;84.10
22666;DHT22;11499;49.486;11.104;2023-05-17T12:14:30;14.20;83.60
22666;DHT22;11499;49.486;11.104;2023-05-17T12:16:58;14.40;81.80
22666;DHT22;11499;49.486;11.104;2023-05-17T12:19:23;14.50;81.50
22666;DHT22;11499;49.486;11.104;2023-05-17T12:21:51;14.30;82.20
22666;DHT22;11499;49.486;11.104;2023-05-17T12:24:17;14.30;82.40
22666;DHT22;11499;49.486;11.104;2023-05-17T12:26:44;14.50;81.10
22666;DHT22;11499;49.486;11.104;2023-05-17T12:29:10;14.30;81.30
22666;DHT22;11499;49.486;11.104;2023-05-17T12:31:39;14.30;80.70
22666;DHT22;11499;49.486;11.104;2023-05-17T12:34:05;14.40;80.40
22666;DHT22;11499;49.486;11.104;2023-05-17T12:36:32;14.40;79.90
22666;DHT22;11499;49.486;11.104;2023-05-17T12:41:39;14.40;79.90
22666;DHT22;11499;49.486;11.104;2023-05-17T12:44:06;14.10;80.70
22666;DHT22;11499;49.486;11.104;2023-05-17T12:46:33;13.90;79.50
22666;DHT22;11499;49.486;11.104;2023-05-17T12:49:06;13.60;82.00
22666;DHT22;11499;49.486;11.104;2023-05-17T12:51:40;13.80;82.50
22666;DHT22;11499;49.486;11.104;2023-05-17T12:54:13;14.00;82.50
22666;DHT22;11499;49.486;11.104;2023-05-17T12:56:43;14.50;80.10
22666;DHT22;11499;49.486;11.104;2023-05-17T13:04:17;15.00;77.60
22666;DHT22;11499;49.486;11.104;2023-05-17T13:06:56;14.90;76.20
22666;DHT22;11499;49.486;11.104;2023-05-17T13:09:23;15.20;76.00
22666;DHT22;11499;49.486;11.104;2023-05-17T13:11:51;15.20;75.60
22666;DHT22;11499;49.486;11.104;2023-05-17T13:16:57;14.30;76.00
22666;DHT22;11499;49.486;11.104;2023-05-17T13:19:23;14.50;76.20
22666;DHT22;11499;49.486;11.104;2023-05-17T13:21:48;14.30;76.80
22666;DHT22;11499;49.486;11.104;2023-05-17T13:27:02;14.10;77.60
22666;DHT22;11499;49.486;11.104;2023-05-17T13:29:29;13.80;79.60
22666;DHT22;11499;49.486;11.104;2023-05-17T13:31:55;13.40;79.80
22666;DHT22;11499;49.486;11.104;2023-05-17T13:34:21;13.40;81.70
22666;DHT22;11499;49.486;11.104;2023-05-17T13:36:47;13.20;82.50
22666;DHT22;11499;49.486;11.104;2023-05-17T13:39:13;13.10;82.30
22666;DHT22;11499;49.486;11.104;2023-05-17T13:41:38;13.10;82.40
22666;DHT22;11499;49.486;11.104;2023-05-17T13:44:05;13.40;81.80
22666;DHT22;11499;49.486;11.104;2023-05-17T13:46:31;13.80;80.70
22666;DHT22;11499;49.486;11.104;2023-05-17T13:48:57;14.40;78.80
22666;DHT22;11499;49.486;11.104;2023-05-17T13:51:23;14.60;77.90
22666;DHT22;11499;49.486;11.104;2023-05-17T13:53:50;14.20;76.50
22666;DHT22;11499;49.486;11.104;2023-05-17T13:58:44;14.40;76.40
22666;DHT22;11499;49.486;11.104;2023-05-17T14:01:10;14.50;74.40
22666;DHT22;11499;49.486;11.104;2023-05-17T14:03:36;14.90;72.90
22666;DHT22;11499;49.486;11.104;2023-05-17T14:06:03;14.40;74.80
22666;DHT22;11499;49.486;11.104;2023-05-17T14:08:29;14.80;73.20
22666;DHT22;11499;49.486;11.104;2023-05-17T14:10:54;14.50;73.30
22666;DHT22;11499;49.486;11.104;2023-05-17T14:13:20;14.60;71.90
22666;DHT22;11499;49.486;11.104;2023-05-17T14:15:46;14.90;72.00
22666;DHT22;11499;49.486;11.104;2023-05-17T14:18:11;15.30;71.40
22666;DHT22;11499;49.486;11.104;2023-05-17T14:20:37;15.50;70.90
22666;DHT22;11499;49.486;11.104;2023-05-17T14:25:37;14.90;68.90
22666;DHT22;11499;49.486;11.104;2023-05-17T14:28:03;14.80;68.20
22666;DHT22;11499;49.486;11.104;2023-05-17T14:30:28;15.20;67.10
22666;DHT22;11499;49.486;11.104;2023-05-17T14:32:54;15.60;67.40
22666;DHT22;11499;49.486;11.104;2023-05-17T14:35:20;15.80;66.40
22666;DHT22;11499;49.486;11.104;2023-05-17T14:37:45;15.00;66.60
22666;DHT22;11499;49.486;11.104;2023-05-17T14:40:11;14.30;68.70
22666;DHT22;11499;49.486;11.104;2023-05-17T14:42:37;15.00;67.60
22666;DHT22;11499;49.486;11.104;2023-05-17T14:45:05;14.70;68.40
22666;DHT22;11499;49.486;11.104;2023-05-17T14:47:30;15.10;67.50
22666;DHT22;11499;49.486;11.104;2023-05-17T14:53:20;14.90;66.60
22666;DHT22;11499;49.486;11.104;2023-05-17T14:55:45;15.20;66.20
22666;DHT22;11499;49.486;11.104;2023-05-17T14:58:11;15.30;65.80
22666;DHT22;11499;49.486;11.104;2023-05-17T15:00:37;15.20;65.60
22666;DHT22;11499;49.486;11.104;2023-05-17T15:03:03;15.70;65.30
22666;DHT22;11499;49.486;11.104;2023-05-17T15:05:28;16.20;63.70
22666;DHT22;11499;49.486;11.104;2023-05-17T15:07:54;16.20;63.70
22666;DHT22;11499;49.486;11.104;2023-05-17T15:10:20;15.80;62.70
22666;DHT22;11499;49.486;11.104;2023-05-17T15:15:43;16.40;63.00
22666;DHT22;11499;49.486;11.104;2023-05-17T15:18:09;15.30;63.30
22666;DHT22;11499;49.486;11.104;2023-05-17T15:20:38;14.90;62.70
22666;DHT22;11499;49.486;11.104;2023-05-17T15:23:04;15.20;63.10
22666;DHT22;11499;49.486;11.104;2023-05-17T15:25:30;15.00;62.90
22666;DHT22;11499;49.486;11.104;2023-05-17T15:27:55;15.00;63.00
22666;DHT22;11499;49.486;11.104;2023-05-17T15:30:21;14.90;64.00
22666;DHT22;11499;49.486;11.104;2023-05-17T15:32:52;15.00;63.30
22666;DHT22;11499;49.486;11.104;2023-05-17T15:35:18;15.40;63.00
22666;DHT22;11499;49.486;11.104;2023-05-17T15:37:44;16.40;61.10
22666;DHT22;11499;49.486;11.104;2023-05-17T15:42:58;16.10;62.30
22666;DHT22;11499;49.486;11.104;2023-05-17T15:45:24;16.60;61.00
22666;DHT22;11499;49.486;11.104;2023-05-17T15:47:50;15.70;61.10
22666;DHT22;11499;49.486;11.104;2023-05-17T15:50:15;16.20;60.20
22666;DHT22;11499;49.486;11.104;2023-05-17T15:52:41;16.80;59.30
22666;DHT22;11499;49.486;11.104;2023-05-17T15:55:07;16.00;59.60
22666;DHT22;11499;49.486;11.104;2023-05-17T15:57:33;16.30;59.10
22666;DHT22;11499;49.486;11.104;2023-05-17T15:59:59;16.00;59.00
22666;DHT22;11499;49.486;11.104;2023-05-17T16:02:24;15.90;60.00
22666;DHT22;11499;49.486;11.104;2023-05-17T16:04:50;16.10;59.50
22666;DHT22;11499;49.486;11.104;2023-05-17T16:09:47;15.70;60.00
22666;DHT22;11499;49.486;11.104;2023-05-17T16:12:12;15.60;61.00
22666;DHT22;11499;49.486;11.104;2023-05-17T16:14:38;15.70;60.60
22666;DHT22;11499;49.486;11.104;2023-05-17T16:17:04;16.00;60.20
22666;DHT22;11499;49.486;11.104;2023-05-17T16:19:30;15.70;61.10
22666;DHT22;11499;49.486;11.104;2023-05-17T16:21:58;15.80;58.90
22666;DHT22;11499;49.486;11.104;2023-05-17T16:24:23;15.60;59.10
22666;DHT22;11499;49.486;11.104;2023-05-17T16:26:50;16.50;59.10
22666;DHT22;11499;49.486;11.104;2023-05-17T16:29:15;16.70;58.10
22666;DHT22;11499;49.486;11.104;2023-05-17T16:31:43;16.50;58.80
22666;DHT22;11499;49.486;11.104;2023-05-17T16:36:49;16.70;58.70
22666;DHT22;11499;49.486;11.104;2023-05-17T16:39:15;16.50;59.10
22666;DHT22;11499;49.486;11.104;2023-05-17T16:41:41;16.00;58.60
22666;DHT22;11499;49.486;11.104;2023-05-17T16:44:06;16.10;59.90
22666;DHT22;11499;49.486;11.104;2023-05-17T16:46:32;16.10;59.90
22666;DHT22;11499;49.486;11.104;2023-05-17T16:48:58;16.30;59.50
22666;DHT22;11499;49.486;11.104;2023-05-17T16:51:23;16.40;59.80
22666;DHT22;11499;49.486;11.104;2023-05-17T16:53:49;16.80;59.10
22666;DHT22;11499;49.486;11.104;2023-05-17T16:58:53;17.40;57.80
22666;DHT22;11499;49.486;11.104;2023-05-17T17:01:19;16.80;58.50
22666;DHT22;11499;49.486;11.104;2023-05-17T17:03:45;17.20;59.00
22666;DHT22;11499;49.486;11.104;2023-05-17T17:06:10;18.10;56.70
22666;DHT22;11499;49.486;11.104;2023-05-17T17:08:36;18.50;55.80
22666;DHT22;11499;49.486;11.104;2023-05-17T17:11:02;19.20;55.60
22666;DHT22;11499;49.486;11.104;2023-05-17T17:13:28;18.40;55.40
22666;DHT22;11499;49.486;11.104;2023-05-17T17:15:53;17.90;56.60